Terminal Aerodrome Forecast
Issued by NWS Corpus Christi, TX

Home | Current Version | Previous Version | Text Only | Print | Product List | Glossary On
Versions: 1 2 3 4 5 6 7 8 9 10 11 12 13 14
000
FTUS44 KCRP 201700
TAFVCT
TAF
KVCT 201726Z 2018/2118 06011KT P6SM VCTS BKN025CB BKN150
      TEMPO 2018/2021 4SM TSRA BKN018CB
     FM210000 VRB04KT P6SM SCT025
      TEMPO 2110/2114 4SM BR BKN018=

USA.gov is the U.S. government's official web portal to all federal, state and local government web resources and services.